Time;durP1;ratioP1;P1;durP2;ratioP2;P2;SDS_P1;SDS_P2;PMS_P1;PMS_P2;Temp;Humidity;BMP_temperature;BMP_pressure;BME280_temperature;BME280_humidity;BME280_pressure;Samples;Min_cycle;Max_cycle;Signal;HPM_P1;HPM_P2
2022/06/07 00:00:48;;;;;;;2.83;2.30;;;14.80;99.90;;;;;;5049937;28;20483;-70
2022/06/07 00:03:15;;;;;;;3.23;2.40;;;14.80;99.90;;;;;;5053439;28;20983;-71
2022/06/07 00:05:43;;;;;;;3.90;2.27;;;14.90;99.90;;;;;;5055498;28;20474;-71
2022/06/07 00:08:12;;;;;;;5.43;3.20;;;14.90;99.90;;;;;;5054754;28;20519;-72
2022/06/07 00:10:39;;;;;;;3.67;2.60;;;14.80;99.90;;;;;;5053091;28;20455;-72
2022/06/07 00:13:07;;;;;;;4.37;2.70;;;14.70;99.90;;;;;;5052584;28;20482;-73
2022/06/07 00:15:34;;;;;;;3.93;2.33;;;14.70;99.90;;;;;;5054778;28;20954;-73
2022/06/07 00:18:01;;;;;;;8.13;3.50;;;14.70;99.90;;;;;;5055775;28;20477;-72
2022/06/07 00:20:28;;;;;;;6.83;3.03;;;14.60;99.90;;;;;;5050254;28;20486;-72
2022/06/07 00:22:56;;;;;;;6.37;3.67;;;14.70;99.90;;;;;;5051826;28;20558;-71
2022/06/07 00:25:23;;;;;;;6.37;3.87;;;14.70;99.90;;;;;;5054831;28;20976;-71
2022/06/07 00:27:50;;;;;;;6.10;3.70;;;14.80;99.90;;;;;;5052018;28;21061;-72
2022/06/07 00:30:19;;;;;;;9.47;3.70;;;14.80;99.90;;;;;;5053320;28;20508;-72
2022/06/07 00:32:46;;;;;;;6.27;3.60;;;14.90;99.90;;;;;;5051376;28;20458;-74
2022/06/07 00:35:14;;;;;;;5.00;3.50;;;15.00;99.90;;;;;;5053339;28;20459;-71
2022/06/07 00:37:41;;;;;;;8.77;3.40;;;14.90;99.90;;;;;;5055534;28;20587;-72
2022/06/07 00:40:09;;;;;;;4.90;4.27;;;14.90;99.90;;;;;;5054923;28;20483;-72
2022/06/07 00:42:36;;;;;;;8.20;4.37;;;14.90;99.90;;;;;;5053477;28;20462;-72
2022/06/07 00:45:04;;;;;;;5.60;3.60;;;14.80;99.90;;;;;;5055317;28;20458;-72
2022/06/07 00:47:33;;;;;;;7.53;4.30;;;14.90;99.90;;;;;;5053316;28;20582;-73
2022/06/07 00:50:05;;;;;;;8.70;5.33;;;14.90;99.90;;;;;;5052388;28;20455;-71
2022/06/07 00:52:34;;;;;;;7.50;4.83;;;14.80;99.90;;;;;;5054880;28;20465;-72
2022/06/07 00:55:01;;;;;;;8.47;5.63;;;14.80;99.90;;;;;;5056236;28;20762;-72
2022/06/07 00:57:28;;;;;;;9.30;4.07;;;14.90;99.90;;;;;;5050444;28;20482;-72
2022/06/07 00:59:55;;;;;;;5.27;4.73;;;14.80;99.90;;;;;;5053504;28;20466;-71
2022/06/07 01:02:23;;;;;;;8.50;5.40;;;14.80;99.90;;;;;;5052470;28;20588;-71
2022/06/07 01:04:51;;;;;;;4.73;4.23;;;14.80;99.90;;;;;;5057942;28;20890;-74
2022/06/07 01:12:49;;;;;;;6.70;5.00;;;14.60;99.90;;;;;;5049407;28;20500;-72
2022/06/07 01:15:16;;;;;;;5.13;4.50;;;14.60;99.90;;;;;;5049878;28;20816;-72
2022/06/07 01:17:43;;;;;;;8.83;4.83;;;14.50;99.90;;;;;;5060821;28;20470;-72
2022/06/07 01:20:12;;;;;;;8.20;4.30;;;14.50;99.90;;;;;;5052277;28;21228;-71
2022/06/07 01:22:41;;;;;;;9.67;4.90;;;14.40;99.90;;;;;;5053702;28;20873;-72
2022/06/07 01:25:09;;;;;;;8.30;7.47;;;14.30;99.90;;;;;;5055676;28;21047;-72
2022/06/07 01:27:36;;;;;;;10.70;6.00;;;14.30;99.90;;;;;;5056428;28;20483;-73
2022/06/07 01:30:02;;;;;;;5.57;4.40;;;14.30;99.90;;;;;;5049664;28;20478;-71
2022/06/07 01:32:29;;;;;;;11.63;4.50;;;14.20;99.90;;;;;;5061260;28;20445;-72
2022/06/07 01:34:56;;;;;;;6.47;5.03;;;14.10;99.90;;;;;;5050281;28;20469;-73
2022/06/07 01:37:23;;;;;;;7.30;4.47;;;14.10;99.90;;;;;;5058300;28;20582;-73
2022/06/07 01:42:36;;;;;;;9.20;4.97;;;14.00;99.90;;;;;;5053067;28;20470;-72
2022/06/07 01:45:03;;;;;;;9.67;4.97;;;13.80;99.90;;;;;;5051740;28;20469;-74
2022/06/07 01:47:32;;;;;;;14.67;7.77;;;13.80;99.90;;;;;;5055960;28;20488;-72
2022/06/07 01:49:59;;;;;;;22.47;12.40;;;13.80;99.90;;;;;;5056559;28;20469;-73
2022/06/07 01:52:28;;;;;;;17.40;9.10;;;13.80;99.90;;;;;;5053945;28;20465;-72
2022/06/07 01:54:56;;;;;;;5.07;3.80;;;13.70;99.90;;;;;;5058079;28;20470;-72
2022/06/07 01:57:23;;;;;;;19.13;6.60;;;13.70;99.90;;;;;;5057634;28;20475;-73
2022/06/07 01:59:51;;;;;;;8.00;4.53;;;13.70;99.90;;;;;;5053313;28;21003;-71
2022/06/07 02:02:18;;;;;;;7.20;5.27;;;13.50;99.90;;;;;;5052600;28;20577;-73
2022/06/07 02:04:46;;;;;;;7.80;5.27;;;13.50;99.90;;;;;;5058522;28;21019;-72
2022/06/07 02:07:14;;;;;;;11.37;6.93;;;13.50;99.90;;;;;;5053364;28;20486;-72
2022/06/07 02:09:41;;;;;;;8.87;5.70;;;13.60;99.90;;;;;;5056658;28;20915;-72
2022/06/07 02:12:10;;;;;;;12.60;6.20;;;13.60;99.90;;;;;;5057533;28;21104;-77
2022/06/07 02:14:36;;;;;;;6.67;4.43;;;13.60;99.90;;;;;;5060980;28;20451;-74
2022/06/07 02:17:04;;;;;;;8.13;5.90;;;13.70;99.90;;;;;;5060052;28;21102;-72
2022/06/07 02:19:31;;;;;;;7.80;4.13;;;13.70;99.90;;;;;;5058064;28;20463;-73
2022/06/07 02:21:58;;;;;;;8.73;5.60;;;13.70;99.90;;;;;;5057286;28;21349;-73
2022/06/07 02:24:26;;;;;;;8.10;4.93;;;13.60;99.90;;;;;;5063340;28;20434;-72
2022/06/07 02:26:57;;;;;;;8.30;6.10;;;13.60;99.90;;;;;;5064980;28;20470;-73
2022/06/07 02:29:29;;;;;;;7.13;5.20;;;13.70;99.90;;;;;;5068189;28;22102;-72
2022/06/07 02:31:59;;;;;;;9.37;4.70;;;13.60;99.90;;;;;;5075913;28;20433;-72
2022/06/07 02:34:26;;;;;;;10.33;4.53;;;13.70;99.90;;;;;;5061545;28;20459;-72
2022/06/07 02:36:57;;;;;;;12.00;5.97;;;13.70;99.90;;;;;;5063490;28;20971;-73
2022/06/07 02:39:25;;;;;;;9.03;4.57;;;13.70;99.90;;;;;;5060681;28;21042;-72
2022/06/07 02:41:53;;;;;;;6.20;5.60;;;13.70;99.90;;;;;;5059525;28;20511;-72
2022/06/07 02:44:20;;;;;;;7.93;4.30;;;13.70;99.90;;;;;;5061157;28;20463;-73
2022/06/07 02:46:49;;;;;;;6.87;4.43;;;13.60;99.90;;;;;;5058901;28;20544;-74
2022/06/07 02:49:16;;;;;;;6.77;4.83;;;13.60;99.90;;;;;;5055287;28;20430;-73
2022/06/07 02:51:43;;;;;;;8.67;5.90;;;13.60;99.90;;;;;;5056810;28;20501;-71
2022/06/07 02:54:11;;;;;;;10.60;3.83;;;13.70;99.90;;;;;;5061490;28;21038;-72
2022/06/07 02:56:38;;;;;;;6.37;3.77;;;13.80;99.90;;;;;;5050289;28;20483;-73
2022/06/07 02:59:05;;;;;;;5.20;4.00;;;13.70;99.90;;;;;;5061765;28;20467;-73
2022/06/07 03:01:32;;;;;;;5.53;4.50;;;13.80;99.90;;;;;;5061110;28;20460;-72
2022/06/07 03:04:00;;;;;;;4.40;3.20;;;13.70;99.90;;;;;;5063485;28;20465;-71
2022/06/07 03:06:27;;;;;;;9.77;5.30;;;13.80;99.90;;;;;;5063640;28;20517;-72
2022/06/07 03:08:54;;;;;;;5.80;4.90;;;13.80;99.90;;;;;;5060240;28;20462;-73
2022/06/07 03:11:21;;;;;;;7.93;3.90;;;13.90;99.90;;;;;;5047888;28;20462;-74
2022/06/07 03:13:48;;;;;;;7.80;4.30;;;14.00;99.90;;;;;;5054830;28;20573;-72
2022/06/07 03:16:16;;;;;;;5.10;4.30;;;14.00;99.90;;;;;;5051650;28;20453;-73
2022/06/07 03:18:43;;;;;;;5.33;4.13;;;14.10;99.90;;;;;;5050790;28;20463;-71
2022/06/07 03:21:11;;;;;;;5.70;3.87;;;14.10;99.90;;;;;;5057429;28;20948;-73
2022/06/07 03:23:38;;;;;;;4.03;2.63;;;14.00;99.90;;;;;;5052987;28;20469;-72
2022/06/07 03:26:06;;;;;;;4.17;3.60;;;13.90;99.90;;;;;;5046601;28;20509;-71
2022/06/07 03:28:33;;;;;;;3.60;2.70;;;14.00;99.90;;;;;;5057790;28;20464;-71
2022/06/07 03:31:05;;;;;;;3.63;2.97;;;14.00;99.90;;;;;;5047023;28;20553;-73
2022/06/07 03:33:33;;;;;;;3.23;2.50;;;14.00;99.90;;;;;;5052904;28;20536;-73
2022/06/07 03:36:05;;;;;;;4.40;3.53;;;14.00;99.90;;;;;;5045605;28;20566;-72
2022/06/07 03:38:34;;;;;;;5.90;3.37;;;14.00;99.90;;;;;;5053795;28;20470;-73
2022/06/07 03:41:01;;;;;;;3.97;3.23;;;14.00;99.90;;;;;;5061937;28;20482;-72
2022/06/07 03:43:28;;;;;;;5.50;3.17;;;14.10;99.90;;;;;;5042473;28;20534;-71
2022/06/07 03:45:54;;;;;;;2.63;1.97;;;14.10;99.90;;;;;;5052717;28;20485;-72
2022/06/07 03:48:22;;;;;;;6.07;2.67;;;14.10;99.90;;;;;;5042602;28;20491;-71
2022/06/07 03:50:48;;;;;;;4.00;2.30;;;14.00;99.90;;;;;;5056793;28;20463;-73
2022/06/07 03:53:15;;;;;;;4.20;2.00;;;14.10;99.90;;;;;;5056514;28;20576;-72
2022/06/07 03:55:47;;;;;;;2.57;1.93;;;14.30;99.90;;;;;;5056097;28;20542;-72
2022/06/07 03:58:14;;;;;;;3.83;2.77;;;14.40;99.90;;;;;;5059578;28;20459;-72
2022/06/07 04:00:41;;;;;;;2.73;2.17;;;14.40;99.90;;;;;;5052976;28;20451;-73
2022/06/07 04:03:08;;;;;;;2.83;2.03;;;14.50;99.90;;;;;;5053741;28;20546;-73
2022/06/07 04:05:40;;;;;;;3.10;2.10;;;14.50;99.90;;;;;;5047140;28;20462;-74
2022/06/07 04:08:13;;;;;;;5.53;2.40;;;14.60;99.90;;;;;;5055808;22;20504;-67
2022/06/07 04:10:50;;;;;;;2.40;2.00;;;14.60;99.90;;;;;;5037069;28;20798;-67
2022/06/07 04:13:17;;;;;;;1.90;1.60;;;14.60;99.90;;;;;;5032683;28;20457;-68
2022/06/07 04:15:45;;;;;;;3.03;2.20;;;14.50;99.90;;;;;;5029685;28;20579;-68
2022/06/07 04:18:12;;;;;;;7.40;2.50;;;14.70;99.90;;;;;;5028582;28;20480;-67
2022/06/07 04:20:39;;;;;;;3.63;2.10;;;14.70;99.90;;;;;;5031608;28;20602;-66
2022/06/07 04:23:07;;;;;;;4.43;2.10;;;14.70;99.90;;;;;;5033733;28;20847;-67
2022/06/07 04:25:35;;;;;;;3.03;1.90;;;14.60;99.90;;;;;;5033692;28;20459;-67
2022/06/07 04:28:04;;;;;;;2.27;1.63;;;14.70;99.90;;;;;;5030044;28;20886;-67
2022/06/07 04:30:32;;;;;;;5.90;2.33;;;14.60;99.90;;;;;;5033505;28;20463;-68
2022/06/07 04:32:59;;;;;;;1.90;1.50;;;14.60;99.90;;;;;;5025662;28;20562;-67
2022/06/07 04:35:26;;;;;;;4.67;2.27;;;14.70;99.90;;;;;;5022237;28;20458;-67
2022/06/07 04:37:54;;;;;;;2.30;1.90;;;14.80;99.90;;;;;;5038238;28;20471;-68
2022/06/07 04:40:22;;;;;;;5.17;3.30;;;14.80;99.90;;;;;;5033813;28;20475;-68
2022/06/07 04:42:49;;;;;;;2.23;2.00;;;14.90;99.90;;;;;;5036815;28;20491;-68
2022/06/07 04:45:17;;;;;;;3.10;1.73;;;15.00;99.90;;;;;;5033041;28;20962;-68
2022/06/07 04:47:46;;;;;;;4.40;2.37;;;15.00;99.90;;;;;;5042994;28;20482;-68
2022/06/07 04:50:15;;;;;;;2.23;1.70;;;15.10;99.90;;;;;;5040343;28;20471;-67
2022/06/07 04:52:43;;;;;;;2.10;1.90;;;15.20;99.90;;;;;;5033645;28;20863;-67
2022/06/07 04:55:10;;;;;;;3.60;2.23;;;15.30;99.90;;;;;;5035458;28;20466;-67
2022/06/07 04:57:37;;;;;;;3.07;2.50;;;15.40;99.90;;;;;;5038419;28;20562;-67
2022/06/07 05:00:05;;;;;;;5.53;1.70;;;15.30;99.90;;;;;;5035797;28;20544;-67
2022/06/07 05:02:35;;;;;;;2.40;2.20;;;15.40;99.90;;;;;;5039744;28;20996;-67
2022/06/07 05:05:03;;;;;;;2.67;2.03;;;15.50;99.90;;;;;;5039770;28;20858;-68
2022/06/07 05:07:29;;;;;;;3.60;1.80;;;15.50;99.90;;;;;;5039386;28;21077;-68
2022/06/07 05:09:56;;;;;;;3.37;2.10;;;15.60;99.90;;;;;;5036265;28;21055;-67
2022/06/07 05:12:23;;;;;;;2.17;1.60;;;15.80;99.90;;;;;;5038271;28;20466;-68
2022/06/07 05:14:50;;;;;;;5.30;1.73;;;15.80;99.90;;;;;;5043945;28;20464;-67
2022/06/07 05:17:17;;;;;;;3.47;2.17;;;15.90;99.90;;;;;;5039827;28;21060;-69
2022/06/07 05:19:45;;;;;;;2.33;1.90;;;15.80;99.90;;;;;;5039312;28;20476;-68
2022/06/07 05:22:12;;;;;;;1.80;1.70;;;15.90;99.90;;;;;;5040073;28;20979;-68
2022/06/07 05:24:39;;;;;;;6.10;2.00;;;15.90;99.90;;;;;;5039343;28;20491;-69
2022/06/07 05:27:09;;;;;;;3.03;2.10;;;16.00;99.90;;;;;;5038805;28;20457;-67
2022/06/07 05:29:46;;;;;;;2.97;2.10;;;16.10;99.90;;;;;;5038793;28;20468;-67
2022/06/07 05:32:13;;;;;;;2.67;2.37;;;16.10;99.90;;;;;;5039612;28;20531;-68
2022/06/07 05:34:40;;;;;;;1.60;1.50;;;16.10;99.90;;;;;;5038190;28;20837;-67
2022/06/07 05:37:11;;;;;;;6.40;2.00;;;16.10;99.90;;;;;;5033494;28;21044;-68
2022/06/07 05:39:38;;;;;;;5.37;1.90;;;16.10;99.90;;;;;;5037332;28;21480;-68
2022/06/07 05:42:06;;;;;;;2.63;1.70;;;16.00;99.90;;;;;;5039666;28;20495;-68
2022/06/07 05:44:34;;;;;;;2.53;1.90;;;16.00;99.90;;;;;;5039869;28;20458;-69
2022/06/07 05:47:02;;;;;;;2.30;1.70;;;16.10;99.90;;;;;;5038565;28;20460;-69
2022/06/07 05:49:30;;;;;;;2.30;1.43;;;16.30;99.90;;;;;;5040631;28;20475;-68
2022/06/07 05:51:57;;;;;;;8.40;2.70;;;16.20;99.90;;;;;;5037940;28;20467;-68
2022/06/07 05:54:25;;;;;;;3.73;1.80;;;16.30;99.90;;;;;;5038147;28;20464;-68
2022/06/07 05:56:52;;;;;;;3.63;1.60;;;16.30;99.90;;;;;;5042763;28;20550;-68
2022/06/07 05:59:19;;;;;;;1.70;1.37;;;16.40;99.90;;;;;;5036501;28;20499;-68
2022/06/07 06:01:45;;;;;;;2.50;1.63;;;16.40;99.90;;;;;;5036055;28;21029;-69
2022/06/07 06:04:12;;;;;;;1.70;1.47;;;16.50;99.90;;;;;;5043614;28;20970;-69
2022/06/07 06:06:39;;;;;;;4.73;1.43;;;16.70;99.90;;;;;;5039215;28;20455;-68
2022/06/07 06:11:54;;;;;;;2.80;1.50;;;16.60;99.90;;;;;;5043253;28;20699;-68
2022/06/07 06:14:21;;;;;;;2.10;1.90;;;16.50;99.90;;;;;;5044892;28;20452;-70
2022/06/07 06:16:48;;;;;;;3.73;1.50;;;16.50;99.90;;;;;;5042032;28;20466;-69
2022/06/07 06:19:15;;;;;;;1.20;1.00;;;16.50;99.90;;;;;;5043107;28;20475;-68
2022/06/07 06:21:44;;;;;;;2.43;1.70;;;16.50;99.90;;;;;;5042043;28;20500;-68
2022/06/07 06:24:12;;;;;;;2.90;1.63;;;16.60;99.90;;;;;;5045074;28;20456;-67
2022/06/07 06:26:40;;;;;;;4.83;1.57;;;16.60;99.90;;;;;;5044832;28;20994;-67
2022/06/07 06:29:09;;;;;;;1.80;1.53;;;16.60;99.90;;;;;;5037472;28;20482;-68
2022/06/07 06:31:36;;;;;;;5.37;2.13;;;16.60;99.90;;;;;;5040924;28;20904;-66
2022/06/07 06:34:03;;;;;;;2.70;1.97;;;16.90;99.90;;;;;;5042982;28;20466;-67
2022/06/07 06:36:31;;;;;;;3.73;1.53;;;17.30;99.90;;;;;;5039626;28;20547;-68
2022/06/07 06:38:59;;;;;;;4.43;3.87;;;18.10;99.90;;;;;;5040911;28;20571;-68
2022/06/07 06:41:27;;;;;;;7.50;2.70;;;18.70;99.90;;;;;;5043139;28;20461;-68
2022/06/07 06:43:55;;;;;;;3.47;1.40;;;19.20;99.90;;;;;;5040425;28;20452;-68
2022/06/07 06:46:27;;;;;;;2.03;1.30;;;19.40;99.90;;;;;;5039692;28;20460;-68
2022/06/07 06:48:54;;;;;;;1.97;1.40;;;19.90;99.90;;;;;;5040259;28;20644;-68
2022/06/07 06:51:26;;;;;;;2.13;1.30;;;20.20;99.90;;;;;;5043513;28;20564;-68
2022/06/07 06:53:53;;;;;;;2.70;1.80;;;20.60;99.90;;;;;;5038661;28;20467;-68
2022/06/07 06:56:22;;;;;;;2.53;1.67;;;20.70;99.90;;;;;;5042164;28;20530;-68
2022/06/07 06:58:50;;;;;;;6.00;2.00;;;20.70;99.90;;;;;;5036175;28;20490;-68
2022/06/07 07:01:19;;;;;;;2.57;1.30;;;21.10;99.90;;;;;;5034654;28;20548;-68
2022/06/07 07:03:47;;;;;;;4.30;1.73;;;21.00;99.90;;;;;;5041110;28;20494;-68
2022/06/07 07:06:15;;;;;;;2.00;1.50;;;21.20;99.90;;;;;;5043430;28;20983;-68
2022/06/07 07:08:44;;;;;;;6.03;2.00;;;21.30;99.90;;;;;;5037993;28;20618;-68
2022/06/07 07:11:15;;;;;;;2.17;1.87;;;21.50;99.90;;;;;;5038980;28;20462;-68
2022/06/07 07:13:42;;;;;;;3.93;2.83;;;22.00;99.90;;;;;;5040926;28;20960;-68
2022/06/07 07:16:11;;;;;;;1.80;1.60;;;22.30;99.90;;;;;;5040923;28;20461;-68
2022/06/07 07:18:38;;;;;;;2.17;1.57;;;22.50;99.90;;;;;;5037697;28;20487;-67
2022/06/07 07:21:15;;;;;;;4.07;2.83;;;22.40;99.90;;;;;;5043267;28;20462;-67
2022/06/07 07:23:43;;;;;;;2.70;1.80;;;22.00;99.90;;;;;;5045371;28;21021;-67
2022/06/07 07:26:13;;;;;;;4.33;2.60;;;21.80;99.90;;;;;;5035085;28;20464;-68
2022/06/07 07:28:42;;;;;;;4.47;2.17;;;21.00;99.90;;;;;;5040012;28;20472;-67
2022/06/07 07:31:13;;;;;;;6.30;1.90;;;21.20;99.90;;;;;;5037075;28;20461;-68
2022/06/07 07:33:40;;;;;;;1.97;1.53;;;21.60;99.90;;;;;;5042568;28;20456;-68
2022/06/07 07:36:09;;;;;;;2.30;1.90;;;21.90;99.90;;;;;;5031248;28;20464;-67
2022/06/07 07:38:36;;;;;;;5.33;2.00;;;22.20;99.90;;;;;;5036613;28;20480;-67
2022/06/07 07:41:04;;;;;;;5.40;1.70;;;23.00;99.90;;;;;;5041362;28;20463;-68
2022/06/07 07:43:31;;;;;;;1.90;1.50;;;23.20;99.90;;;;;;5038214;28;20488;-67
2022/06/07 07:45:58;;;;;;;2.60;1.83;;;23.40;99.90;;;;;;5041096;28;20461;-68
2022/06/07 07:48:25;;;;;;;4.60;2.27;;;23.20;99.90;;;;;;5044440;28;20471;-67
2022/06/07 07:50:53;;;;;;;5.47;1.80;;;23.30;99.90;;;;;;5043407;28;20463;-68
2022/06/07 07:53:21;;;;;;;2.50;1.57;;;23.70;99.90;;;;;;5033388;28;20544;-68
2022/06/07 07:55:50;;;;;;;2.90;1.90;;;24.50;99.90;;;;;;5040324;28;20530;-68
2022/06/07 07:58:18;;;;;;;2.20;1.93;;;25.00;99.90;;;;;;5035043;28;20484;-68
2022/06/07 08:00:46;;;;;;;3.00;2.03;;;24.70;99.90;;;;;;5037577;28;20464;-66
2022/06/07 08:03:14;;;;;;;3.67;2.27;;;24.30;99.90;;;;;;5033857;28;20568;-66
2022/06/07 08:05:41;;;;;;;5.00;2.70;;;24.40;99.90;;;;;;5037880;28;20467;-68
2022/06/07 08:08:09;;;;;;;2.90;2.30;;;24.80;99.90;;;;;;5038092;28;20492;-67
2022/06/07 08:10:38;;;;;;;2.73;2.50;;;24.30;99.90;;;;;;5034151;28;20503;-66
2022/06/07 08:13:05;;;;;;;3.57;1.90;;;24.10;99.90;;;;;;5036352;28;20467;-67
2022/06/07 08:15:34;;;;;;;3.17;1.50;;;24.10;99.90;;;;;;5037003;28;20809;-68
2022/06/07 08:18:03;;;;;;;6.47;2.17;;;24.50;99.90;;;;;;5039205;28;20483;-68
2022/06/07 08:20:31;;;;;;;3.10;2.00;;;24.30;99.90;;;;;;5033547;28;20788;-67
2022/06/07 08:22:59;;;;;;;2.00;1.83;;;24.50;99.90;;;;;;5039772;28;20846;-68
2022/06/07 08:25:26;;;;;;;1.60;1.13;;;24.50;99.90;;;;;;5034636;28;20471;-67
2022/06/07 08:27:54;;;;;;;8.80;2.50;;;24.20;99.90;;;;;;5034988;28;20476;-69
2022/06/07 08:30:21;;;;;;;3.50;2.67;;;24.10;99.90;;;;;;5034558;28;20466;-69
2022/06/07 08:32:48;;;;;;;4.10;1.93;;;23.90;99.90;;;;;;5035766;28;20901;-69
2022/06/07 08:38:01;;;;;;;2.27;2.07;;;24.10;99.90;;;;;;5035691;28;20491;-70
2022/06/07 08:40:33;;;;;;;3.37;1.80;;;24.60;99.90;;;;;;5034197;28;20460;-69
2022/06/07 08:43:06;;;;;;;5.10;2.00;;;24.60;99.90;;;;;;5034088;28;21020;-73
2022/06/07 08:45:38;;;;;;;2.30;1.77;;;24.10;99.90;;;;;;5036175;28;20464;-70
2022/06/07 08:48:11;;;;;;;4.90;1.83;;;24.20;99.90;;;;;;5037630;28;20482;-70
2022/06/07 08:50:43;;;;;;;3.37;2.40;;;25.20;99.90;;;;;;5033931;28;20477;-69
2022/06/07 08:53:14;;;;;;;3.03;1.87;;;25.70;99.90;;;;;;5035520;28;20485;-69
2022/06/07 08:55:45;;;;;;;4.07;2.00;;;25.80;98.70;;;;;;5029127;28;20924;-70
2022/06/07 08:58:17;;;;;;;2.53;1.97;;;25.40;98.40;;;;;;5040947;28;21510;-70
2022/06/07 09:00:48;;;;;;;2.17;1.97;;;25.30;99.90;;;;;;5043320;28;20476;-70
2022/06/07 09:03:33;;;;;;;3.63;1.87;;;25.70;97.50;;;;;;5041173;28;20471;-69
2022/06/07 09:06:03;;;;;;;1.80;1.60;;;25.80;97.30;;;;;;5039425;28;20835;-69
2022/06/07 09:08:35;;;;;;;4.13;2.50;;;26.20;96.50;;;;;;5037966;28;20514;-69
2022/06/07 09:13:51;;;;;;;2.87;2.63;;;25.90;96.30;;;;;;5034620;28;20979;-69
2022/06/07 09:16:19;;;;;;;2.23;1.93;;;25.70;95.40;;;;;;5037465;28;20463;-69
2022/06/07 09:18:46;;;;;;;2.50;2.10;;;25.50;95.80;;;;;;5039389;28;20491;-69
2022/06/07 09:21:32;;;;;;;2.30;1.87;;;25.60;95.40;;;;;;5035020;28;20568;-69
2022/06/07 09:24:00;;;;;;;2.00;1.50;;;25.40;96.00;;;;;;5036338;28;20481;-70
2022/06/07 09:26:31;;;;;;;10.33;2.73;;;25.60;95.70;;;;;;5036830;28;20989;-70
2022/06/07 09:29:12;;;;;;;3.20;1.70;;;26.10;94.40;;;;;;5035547;28;20484;-70
2022/06/07 09:31:41;;;;;;;2.67;1.80;;;26.30;94.00;;;;;;5038217;28;21450;-70
2022/06/07 09:34:16;;;;;;;1.90;1.70;;;27.00;93.40;;;;;;5041771;28;20590;-70
2022/06/07 09:36:47;;;;;;;2.20;1.93;;;26.90;92.40;;;;;;5032882;28;20467;-70
2022/06/07 09:39:17;;;;;;;3.63;1.63;;;26.60;91.50;;;;;;5041743;28;20511;-70
2022/06/07 09:41:48;;;;;;;2.57;1.70;;;26.10;90.90;;;;;;5040989;28;20456;-70
2022/06/07 09:44:22;;;;;;;7.27;1.83;;;25.20;91.30;;;;;;5038248;28;20488;-70
2022/06/07 09:46:51;;;;;;;1.90;1.60;;;24.90;92.10;;;;;;5040976;28;20465;-69
2022/06/07 09:49:27;;;;;;;6.50;1.80;;;24.80;91.60;;;;;;5043831;28;20503;-70
2022/06/07 09:51:54;;;;;;;3.50;2.10;;;24.30;93.30;;;;;;5045163;28;20558;-70
2022/06/07 09:54:22;;;;;;;3.47;2.30;;;24.50;94.20;;;;;;5040084;28;20452;-70
2022/06/07 09:57:00;;;;;;;4.13;1.70;;;24.60;94.70;;;;;;5039541;28;20467;-70
2022/06/07 09:59:45;;;;;;;2.80;1.77;;;24.70;95.70;;;;;;5038715;28;20487;-70
2022/06/07 10:02:36;;;;;;;5.53;1.90;;;24.60;95.60;;;;;;5039540;28;20459;-70
2022/06/07 10:05:11;;;;;;;1.63;1.53;;;24.60;96.00;;;;;;5039056;28;20996;-70
2022/06/07 10:07:46;;;;;;;2.67;1.77;;;24.70;96.20;;;;;;5039843;28;20869;-69
2022/06/07 10:10:20;;;;;;;1.50;1.00;;;24.10;96.40;;;;;;5059013;22;20510;-72
2022/06/07 10:13:06;;;;;;;15.67;4.97;;;23.30;97.20;;;;;;5043709;28;20482;-69
2022/06/07 10:15:40;;;;;;;4.40;2.00;;;23.00;99.10;;;;;;5042225;28;20468;-68
2022/06/07 10:18:22;;;;;;;2.10;1.90;;;23.00;98.70;;;;;;5036271;28;21424;-69
2022/06/07 10:21:08;;;;;;;1.73;1.60;;;23.50;99.00;;;;;;5020424;28;20563;-69
2022/06/07 10:23:56;;;;;;;1.80;1.70;;;24.30;97.90;;;;;;5016661;28;20559;-68
2022/06/07 10:26:32;;;;;;;2.90;2.07;;;24.60;98.10;;;;;;5015264;28;20461;-70
2022/06/07 10:29:12;;;;;;;2.10;1.73;;;24.80;98.00;;;;;;5020824;28;20480;-70
2022/06/07 10:31:48;;;;;;;2.47;2.23;;;24.40;97.90;;;;;;5014970;28;20509;-70
2022/06/07 10:34:23;;;;;;;3.10;1.60;;;24.30;98.40;;;;;;5020897;28;20915;-71
2022/06/07 10:37:02;;;;;;;2.40;1.77;;;24.10;99.00;;;;;;5021755;28;20486;-71
2022/06/07 10:39:41;;;;;;;2.30;1.80;;;23.80;99.10;;;;;;5017406;28;20572;-70
2022/06/07 10:42:19;;;;;;;4.57;1.90;;;23.60;98.90;;;;;;5021116;28;20456;-71
2022/06/07 10:44:51;;;;;;;2.30;1.57;;;24.00;99.70;;;;;;5014168;28;20876;-70
2022/06/07 10:47:28;;;;;;;4.97;1.53;;;25.50;97.30;;;;;;5020140;28;20460;-72
2022/06/07 10:50:01;;;;;;;1.73;1.37;;;26.10;96.90;;;;;;5017757;28;20503;-71
2022/06/07 10:52:36;;;;;;;4.90;1.97;;;26.10;96.30;;;;;;5019171;28;20911;-70
2022/06/07 10:55:14;;;;;;;2.00;1.60;;;25.60;97.70;;;;;;5016637;28;20460;-71
2022/06/07 10:57:53;;;;;;;2.50;1.53;;;25.40;96.60;;;;;;5022400;28;20456;-70
2022/06/07 11:00:37;;;;;;;3.30;1.50;;;25.90;95.60;;;;;;5015879;28;20569;-70
2022/06/07 11:03:16;;;;;;;2.83;1.70;;;26.20;95.30;;;;;;5017458;28;20469;-70
2022/06/07 11:11:21;;;;;;;3.03;1.60;;;25.80;94.80;;;;;;5017884;28;20464;-70
2022/06/07 11:14:03;;;;;;;4.13;1.90;;;24.40;96.50;;;;;;5012499;28;20460;-70
2022/06/07 11:16:37;;;;;;;5.53;1.63;;;23.80;97.80;;;;;;5021003;28;20469;-70
2022/06/07 11:19:06;;;;;;;5.73;1.90;;;24.10;98.50;;;;;;5020570;28;22702;-69
2022/06/07 11:21:35;;;;;;;1.50;1.10;;;24.10;98.20;;;;;;5016539;28;20547;-70
2022/06/07 11:24:17;;;;;;;1.73;1.47;;;24.30;96.80;;;;;;5018600;28;20499;-70
2022/06/07 11:27:14;;;;;;;2.40;1.50;;;24.00;97.60;;;;;;5017106;28;20465;-70
2022/06/07 11:29:41;;;;;;;3.10;1.60;;;24.00;98.30;;;;;;5010432;28;20484;-70
2022/06/07 11:32:42;;;;;;;2.60;1.50;;;24.30;98.80;;;;;;5017209;28;20456;-70
2022/06/07 11:35:49;;;;;;;2.13;1.27;;;24.40;97.10;;;;;;5017657;28;20456;-71
2022/06/07 11:38:35;;;;;;;3.87;2.07;;;24.40;97.00;;;;;;5015360;28;21011;-71
2022/06/07 11:41:42;;;;;;;1.50;1.27;;;24.40;97.90;;;;;;5018626;28;20537;-70
2022/06/07 11:44:34;;;;;;;2.77;1.60;;;24.30;97.60;;;;;;5012003;28;20564;-71
2022/06/07 11:47:04;;;;;;;3.13;1.50;;;24.30;97.40;;;;;;5017813;28;20537;-70
2022/06/07 11:49:40;;;;;;;4.80;1.30;;;23.80;97.70;;;;;;5018850;28;20484;-71
2022/06/07 11:52:25;;;;;;;2.20;1.43;;;23.40;98.80;;;;;;5017031;28;20518;-70
2022/06/07 11:54:55;;;;;;;1.47;1.27;;;23.30;98.70;;;;;;5022115;28;20461;-70
2022/06/07 11:57:30;;;;;;;2.27;1.13;;;23.40;99.50;;;;;;5017174;28;20453;-70
2022/06/07 11:59:59;;;;;;;1.80;1.17;;;23.40;99.90;;;;;;5015838;28;20574;-71
2022/06/07 12:02:33;;;;;;;2.33;1.20;;;23.50;99.80;;;;;;5018146;28;20458;-70
2022/06/07 12:05:19;;;;;;;3.47;1.90;;;23.70;99.80;;;;;;5017718;28;20493;-70
2022/06/07 12:07:51;;;;;;;1.87;1.27;;;23.60;99.90;;;;;;5018723;28;20465;-70
2022/06/07 12:10:28;;;;;;;1.60;1.30;;;23.70;99.50;;;;;;5018066;28;20481;-70
2022/06/07 12:12:57;;;;;;;1.50;1.30;;;23.90;99.90;;;;;;5020545;28;20463;-69
2022/06/07 12:15:28;;;;;;;5.33;1.67;;;24.20;99.60;;;;;;5018407;28;20469;-71
2022/06/07 12:17:58;;;;;;;1.70;1.57;;;23.90;99.40;;;;;;5017930;28;20467;-70
2022/06/07 12:20:30;;;;;;;2.07;1.53;;;23.70;99.60;;;;;;5015440;28;20579;-71
2022/06/07 12:23:11;;;;;;;1.70;1.40;;;23.60;99.90;;;;;;5012796;28;20496;-69
2022/06/07 12:25:38;;;;;;;4.20;1.53;;;23.50;99.90;;;;;;5016686;28;20457;-71
2022/06/07 12:28:05;;;;;;;1.73;1.13;;;23.10;99.90;;;;;;5020689;28;20457;-70
2022/06/07 12:30:35;;;;;;;2.50;1.40;;;23.00;99.90;;;;;;5014600;28;20488;-71
2022/06/07 12:33:15;;;;;;;1.37;1.10;;;23.10;99.90;;;;;;5015764;28;20461;-70
2022/06/07 12:35:54;;;;;;;2.77;1.77;;;23.20;99.90;;;;;;5018552;28;20464;-70
2022/06/07 12:38:22;;;;;;;5.13;2.03;;;23.40;99.90;;;;;;5010929;28;21074;-69
2022/06/07 12:40:52;;;;;;;2.80;1.30;;;23.40;99.90;;;;;;5012988;28;20579;-71
2022/06/07 12:43:26;;;;;;;1.40;1.27;;;23.60;99.90;;;;;;5023608;28;20569;-69
2022/06/07 12:45:59;;;;;;;4.13;2.20;;;23.30;99.90;;;;;;5021760;28;20544;-70
2022/06/07 12:48:27;;;;;;;1.47;1.37;;;23.10;99.90;;;;;;5012847;28;20458;-71
2022/06/07 12:50:55;;;;;;;2.70;1.30;;;23.10;99.90;;;;;;5019235;28;20460;-69
2022/06/07 12:53:25;;;;;;;3.70;1.50;;;23.00;99.90;;;;;;5016495;28;20461;-70
2022/06/07 12:55:56;;;;;;;1.87;1.00;;;23.30;99.90;;;;;;5017414;28;20552;-72
2022/06/07 12:58:24;;;;;;;2.60;1.73;;;23.20;99.90;;;;;;5017882;28;20464;-70
2022/06/07 13:00:51;;;;;;;2.20;1.40;;;23.20;99.90;;;;;;5020413;28;20465;-70
2022/06/07 13:03:26;;;;;;;1.73;1.50;;;23.70;99.90;;;;;;5013896;28;20457;-70
2022/06/07 13:05:58;;;;;;;1.73;1.20;;;23.80;99.90;;;;;;5016391;28;20459;-69
2022/06/07 13:08:33;;;;;;;2.23;1.50;;;23.50;99.90;;;;;;5020760;28;20464;-69
2022/06/07 13:11:00;;;;;;;2.43;2.20;;;24.50;99.90;;;;;;5022061;28;20495;-69
2022/06/07 13:13:33;;;;;;;3.80;2.03;;;25.20;99.80;;;;;;5020644;28;20463;-69
2022/06/07 13:16:03;;;;;;;2.20;1.47;;;25.60;99.90;;;;;;5024435;28;20869;-70
2022/06/07 13:18:33;;;;;;;2.00;1.50;;;25.90;99.20;;;;;;5024185;28;20456;-70
2022/06/07 13:21:22;;;;;;;2.53;1.70;;;25.40;99.00;;;;;;5019553;28;20469;-69
2022/06/07 13:23:55;;;;;;;3.83;1.30;;;24.50;99.90;;;;;;5009394;28;20568;-70